createdAt,value
2023-04-30T00:03:29.595Z,1009.9
2023-04-30T00:08:35.631Z,1009.9
2023-04-30T00:13:41.745Z,1010
2023-04-30T00:18:47.833Z,1010.1
2023-04-30T00:23:53.923Z,1010.1
2023-04-30T00:29:00.040Z,1010.1
2023-04-30T00:34:06.120Z,1010.2
2023-04-30T00:39:12.237Z,1010.3
2023-04-30T00:44:17.345Z,1010.3
2023-04-30T00:49:23.440Z,1010.3
2023-04-30T00:54:29.523Z,1010.4
2023-04-30T00:59:35.635Z,1010.4
2023-04-30T01:04:41.724Z,1010.5
2023-04-30T01:09:47.984Z,1010.5
2023-04-30T01:14:54.013Z,1010.5
2023-04-30T01:20:00.179Z,1010.5
2023-04-30T01:25:06.117Z,1010.6
2023-04-30T01:30:12.203Z,1010.7
2023-04-30T01:35:18.311Z,1010.7
2023-04-30T01:40:24.482Z,1010.7
2023-04-30T01:45:30.561Z,1010.8
2023-04-30T01:50:35.790Z,1010.8
2023-04-30T01:55:41.719Z,1010.8
2023-04-30T02:00:47.870Z,1010.9
2023-04-30T02:05:53.925Z,1011
2023-04-30T02:11:00.024Z,1011.2
2023-04-30T02:16:06.114Z,1011.2
2023-04-30T02:21:12.241Z,1011.3
2023-04-30T02:26:18.315Z,1011.2
2023-04-30T02:31:24.411Z,1011.2
2023-04-30T02:36:30.540Z,1011.3
2023-04-30T02:41:36.765Z,1011.4
2023-04-30T02:46:42.692Z,1011.3
2023-04-30T02:51:48.839Z,1011.3
2023-04-30T02:56:53.919Z,1011.3
2023-04-30T03:02:00.156Z,1011.4
2023-04-30T03:07:06.146Z,1011.5
2023-04-30T03:12:12.207Z,1011.5
2023-04-30T03:17:18.336Z,1011.5
2023-04-30T03:22:24.392Z,1011.5
2023-04-30T03:27:30.505Z,1011.6
2023-04-30T03:32:36.584Z,1011.5
2023-04-30T03:37:42.807Z,1011.6
2023-04-30T03:42:48.800Z,1011.7
2023-04-30T03:47:54.898Z,1011.8
2023-04-30T03:53:00.991Z,1011.9
2023-04-30T03:58:07.175Z,1011.9
2023-04-30T04:03:12.277Z,1011.9
2023-04-30T04:08:18.320Z,1011.9
2023-04-30T04:13:24.420Z,1012
2023-04-30T04:18:30.503Z,1012
2023-04-30T04:23:36.649Z,1012.1
2023-04-30T04:28:42.768Z,1012.1
2023-04-30T04:33:48.812Z,1012.2
2023-04-30T04:38:54.897Z,1012.3
2023-04-30T04:44:00.992Z,1012.3
2023-04-30T04:49:07.135Z,1012.4
2023-04-30T04:54:13.192Z,1012.5
2023-04-30T04:59:19.477Z,1012.4
2023-04-30T05:04:25.384Z,1012.6
2023-04-30T05:09:30.594Z,1012.6
2023-04-30T05:14:36.767Z,1012.7
2023-04-30T05:19:42.824Z,1012.7
2023-04-30T05:24:48.891Z,1012.7
2023-04-30T05:29:54.934Z,1012.8
2023-04-30T05:35:00.981Z,1012.8
2023-04-30T05:40:07.308Z,1012.9
2023-04-30T05:45:13.280Z,1012.8
2023-04-30T05:50:19.320Z,1013
2023-04-30T05:55:25.392Z,1012.8
2023-04-30T06:00:31.475Z,1012.8
2023-04-30T06:05:37.645Z,1013
2023-04-30T06:10:43.695Z,1013
2023-04-30T06:15:48.827Z,1012.9
2023-04-30T06:20:54.893Z,1013
2023-04-30T06:26:01.061Z,1013
2023-04-30T06:31:07.111Z,1013
2023-04-30T06:36:13.191Z,1013
2023-04-30T06:41:19.365Z,1013
2023-04-30T06:46:25.377Z,1013
2023-04-30T06:51:31.516Z,1013
2023-04-30T06:56:37.570Z,1013.1
2023-04-30T07:01:43.704Z,1013
2023-04-30T07:06:49.768Z,1013.1
2023-04-30T07:11:55.877Z,1013.1
2023-04-30T07:17:01.950Z,1013.1
2023-04-30T07:22:07.225Z,1013.1
2023-04-30T07:27:13.173Z,1013.1
2023-04-30T07:32:19.259Z,1013.1
2023-04-30T07:37:25.459Z,1013.1
2023-04-30T07:47:37.565Z,1013
2023-04-30T07:52:43.839Z,1013.1
2023-04-30T07:57:49.955Z,1013.1
2023-04-30T08:02:56.034Z,1013.2
2023-04-30T08:08:02.095Z,1013.1
2023-04-30T08:13:08.035Z,1013.1
2023-04-30T08:18:14.144Z,1013.1
2023-04-30T08:23:20.383Z,1013.1
2023-04-30T08:28:25.401Z,1013.1
2023-04-30T08:33:31.461Z,1013.2
2023-04-30T08:38:37.540Z,1013.1
2023-04-30T08:43:43.649Z,1013.1
2023-04-30T08:48:49.762Z,1013.1
2023-04-30T08:53:55.942Z,1013
2023-04-30T08:59:01.914Z,1013.1
2023-04-30T09:04:08.019Z,1013.1
2023-04-30T09:09:14.119Z,1013.1
2023-04-30T09:14:20.208Z,1013
2023-04-30T09:19:26.359Z,1013
2023-04-30T09:24:32.435Z,1013
2023-04-30T09:29:38.494Z,1013
2023-04-30T09:34:43.617Z,1013.1
2023-04-30T09:39:49.834Z,1013
2023-04-30T09:44:55.797Z,1013
2023-04-30T09:50:01.906Z,1013
2023-04-30T09:55:08.120Z,1013
2023-04-30T10:00:14.193Z,1012.9
2023-04-30T10:05:20.261Z,1012.9
2023-04-30T10:10:26.321Z,1012.8
2023-04-30T10:15:32.418Z,1012.8
2023-04-30T10:20:38.542Z,1012.8
2023-04-30T10:25:44.600Z,1012.6
2023-04-30T10:30:50.697Z,1012.7
2023-04-30T10:35:56.770Z,1012.7
2023-04-30T10:41:01.938Z,1012.6
2023-04-30T10:46:08.000Z,1012.5
2023-04-30T10:51:14.079Z,1012.5
2023-04-30T10:56:20.168Z,1012.5
2023-04-30T11:01:26.330Z,1012.3
2023-04-30T11:06:32.351Z,1012.3
2023-04-30T11:11:38.461Z,1012.3
2023-04-30T11:16:44.623Z,1012.2
2023-04-30T11:21:50.645Z,1012.1
2023-04-30T11:26:56.740Z,1012.1
2023-04-30T11:32:02.822Z,1012
2023-04-30T11:37:08.957Z,1012.1
2023-04-30T11:42:15.036Z,1012
2023-04-30T11:47:20.139Z,1012
2023-04-30T11:52:26.226Z,1011.9
2023-04-30T11:57:32.370Z,1011.8
2023-04-30T12:02:38.430Z,1011.7
2023-04-30T12:07:44.513Z,1011.7
2023-04-30T12:12:50.602Z,1011.7
2023-04-30T12:17:56.737Z,1011.7
2023-04-30T12:23:02.860Z,1011.7
2023-04-30T12:28:08.932Z,1011.7
2023-04-30T12:33:15.011Z,1011.6
2023-04-30T12:38:21.104Z,1011.6
2023-04-30T12:43:27.309Z,1011.6
2023-04-30T12:48:33.281Z,1011.5
2023-04-30T12:53:38.424Z,1011.5
2023-04-30T12:58:44.505Z,1011.4
2023-04-30T13:03:50.650Z,1011.5
2023-04-30T13:08:56.692Z,1011.4
2023-04-30T13:14:02.771Z,1011.3
2023-04-30T13:19:08.878Z,1011.3
2023-04-30T13:24:14.001Z,1011.2
2023-04-30T13:29:20.198Z,1011.2
2023-04-30T13:34:26.222Z,1011.1
2023-04-30T13:39:32.272Z,1011
2023-04-30T13:44:38.402Z,1011
2023-04-30T13:49:44.552Z,1010.9
2023-04-30T13:54:50.567Z,1011
2023-04-30T13:59:56.697Z,1010.9
2023-04-30T14:05:02.754Z,1010.9
2023-04-30T14:10:08.859Z,1010.9
2023-04-30T14:15:14.979Z,1011.1
2023-04-30T14:20:21.144Z,1010.9
2023-04-30T14:25:27.185Z,1011
2023-04-30T14:30:32.348Z,1010.9
2023-04-30T14:35:38.388Z,1010.8
2023-04-30T14:40:44.469Z,1010.7
2023-04-30T14:45:50.581Z,1010.6
2023-04-30T14:50:56.703Z,1010.6
2023-04-30T14:56:02.743Z,1010.6
2023-04-30T15:01:08.816Z,1010.5
2023-04-30T15:06:14.968Z,1010.5
2023-04-30T15:11:21.019Z,1010.4
2023-04-30T15:16:27.123Z,1010.4
2023-04-30T15:21:33.234Z,1010.4
2023-04-30T15:26:39.332Z,1010.4
2023-04-30T15:31:45.409Z,1010.4
2023-04-30T15:36:50.584Z,1010.4
2023-04-30T15:41:56.784Z,1010.4
2023-04-30T15:47:02.708Z,1010.4
2023-04-30T15:52:08.806Z,1010.4
2023-04-30T15:57:14.903Z,1010.3
2023-04-30T16:02:20.992Z,1010.2
2023-04-30T16:07:27.091Z,1010.1
2023-04-30T16:12:33.179Z,1010.2
2023-04-30T16:17:39.297Z,1010.1
2023-04-30T16:22:45.441Z,1010.1
2023-04-30T16:27:51.521Z,1010.1
2023-04-30T16:32:57.561Z,1010
2023-04-30T16:38:03.791Z,1010
2023-04-30T16:43:08.856Z,1009.9
2023-04-30T16:48:14.871Z,1009.9
2023-04-30T16:53:21.004Z,1010
2023-04-30T16:58:27.064Z,1009.9
2023-04-30T17:03:33.166Z,1009.9
2023-04-30T17:08:39.239Z,1009.9
2023-04-30T17:13:45.340Z,1009.8
2023-04-30T17:18:51.453Z,1009.8
2023-04-30T17:23:57.538Z,1009.7
2023-04-30T17:29:03.647Z,1009.8
2023-04-30T17:34:09.741Z,1009.7
2023-04-30T17:39:15.831Z,1009.7
2023-04-30T17:44:22.090Z,1009.7
2023-04-30T17:49:27.047Z,1009.7
2023-04-30T17:54:33.196Z,1009.7
2023-04-30T17:59:39.264Z,1009.8
2023-04-30T18:04:45.374Z,1009.8
2023-04-30T18:09:51.616Z,1009.7
2023-04-30T18:14:57.537Z,1009.7
2023-04-30T18:20:03.743Z,1009.6
2023-04-30T18:25:09.788Z,1009.6
2023-04-30T18:30:15.988Z,1009.5
2023-04-30T18:35:21.938Z,1009.6
2023-04-30T18:40:28.172Z,1009.6
2023-04-30T18:45:34.101Z,1009.6
2023-04-30T18:50:40.281Z,1009.5
2023-04-30T18:55:45.302Z,1009.6
2023-04-30T19:00:51.407Z,1009.6
2023-04-30T19:05:57.623Z,1009.6
2023-04-30T19:11:03.613Z,1009.6
2023-04-30T19:16:09.846Z,1009.6
2023-04-30T19:21:15.862Z,1009.8
2023-04-30T19:26:21.903Z,1009.8
2023-04-30T19:31:28.057Z,1009.7
2023-04-30T19:36:34.103Z,1009.8
2023-04-30T19:41:40.300Z,1009.7
2023-04-30T19:46:46.267Z,1009.7
2023-04-30T19:51:52.412Z,1009.8
2023-04-30T19:56:58.473Z,1009.8
2023-04-30T20:02:03.611Z,1009.8
2023-04-30T20:07:09.676Z,1009.8
2023-04-30T20:12:15.844Z,1009.8
2023-04-30T20:17:21.868Z,1009.8
2023-04-30T20:22:28.028Z,1009.8
2023-04-30T20:27:34.123Z,1009.7
2023-04-30T20:32:40.172Z,1009.7
2023-04-30T20:37:46.281Z,1009.6
2023-04-30T20:42:52.467Z,1009.7
2023-04-30T20:47:58.465Z,1009.6
2023-04-30T20:53:04.614Z,1009.6
2023-04-30T20:58:10.700Z,1009.5
2023-04-30T21:03:16.815Z,1009.5
2023-04-30T21:08:21.892Z,1009.5
2023-04-30T21:13:27.989Z,1009.5
2023-04-30T21:18:34.183Z,1009.4
2023-04-30T21:23:40.174Z,1009.4
2023-04-30T21:28:46.268Z,1009.4
2023-04-30T21:33:52.378Z,1009.4
2023-04-30T21:38:58.500Z,1009.3
2023-04-30T21:44:04.606Z,1009.3
2023-04-30T21:49:10.669Z,1009.2
2023-04-30T21:54:16.771Z,1009.3
2023-04-30T21:59:22.863Z,1009.3
2023-04-30T22:04:28.972Z,1009.3
2023-04-30T22:09:35.060Z,1009.4
2023-04-30T22:14:40.190Z,1009.3
2023-04-30T22:19:46.346Z,1009.4
2023-04-30T22:24:52.429Z,1009.4
2023-04-30T22:29:58.498Z,1009.4
2023-04-30T22:35:04.562Z,1009.4
2023-04-30T22:40:10.633Z,1009.4
2023-04-30T22:45:16.748Z,1009.3
2023-04-30T22:50:22.829Z,1009.4
2023-04-30T22:55:28.935Z,1009.4
2023-04-30T23:00:35.083Z,1009.4
2023-04-30T23:05:41.129Z,1009.4
2023-04-30T23:10:47.284Z,1009.2
2023-04-30T23:15:53.356Z,1009.3
2023-04-30T23:20:58.427Z,1009.3
2023-04-30T23:26:04.548Z,1009.3
2023-04-30T23:31:10.724Z,1009.2
2023-04-30T23:36:16.862Z,1009.2
2023-04-30T23:41:22.866Z,1009.1
2023-04-30T23:46:28.945Z,1009.2
2023-04-30T23:51:35.122Z,1009
2023-04-30T23:56:41.123Z,1009
